createdAt,value
2023-02-16T00:00:37.958Z,97.60
2023-02-16T00:03:15.752Z,252.90
2023-02-16T00:05:46.586Z,249.05
2023-02-16T00:08:17.461Z,183.62
2023-02-16T00:10:50.010Z,128.95
2023-02-16T00:13:44.245Z,103.90
2023-02-16T00:16:22.301Z,184.43
2023-02-16T00:18:53.921Z,134.32
2023-02-16T00:21:24.501Z,101.58
2023-02-16T00:23:55.011Z,101.38
2023-02-16T00:26:28.526Z,95.32
2023-02-16T00:29:02.114Z,91.17
2023-02-16T00:31:33.052Z,93.50
2023-02-16T00:34:25.319Z,89.42
2023-02-16T00:36:56.774Z,90.00
2023-02-16T00:39:28.879Z,94.65
2023-02-16T00:42:05.607Z,151.45
2023-02-16T00:44:46.380Z,115.57
2023-02-16T00:47:24.735Z,93.50
2023-02-16T00:49:57.112Z,88.33
2023-02-16T00:52:43.888Z,91.97
2023-02-16T00:55:20.643Z,87.02
2023-02-16T00:58:00.010Z,91.47
2023-02-16T01:00:33.236Z,89.22
2023-02-16T01:03:06.721Z,88.72
2023-02-16T01:05:37.815Z,90.07
2023-02-16T01:08:41.855Z,90.03
2023-02-16T01:11:16.426Z,94.92
2023-02-16T01:13:50.153Z,96.08
2023-02-16T01:16:26.590Z,94.22
2023-02-16T01:18:57.425Z,93.03
2023-02-16T01:21:28.311Z,94.50
2023-02-16T01:23:59.178Z,93.58
2023-02-16T01:26:33.441Z,97.50
2023-02-16T01:29:04.192Z,96.53
2023-02-16T01:31:34.961Z,91.12
2023-02-16T01:34:05.881Z,100.40
2023-02-16T01:36:39.119Z,97.17
2023-02-16T01:39:11.224Z,98.85
2023-02-16T01:41:53.670Z,95.77
2023-02-16T01:44:30.122Z,96.47
2023-02-16T01:47:19.974Z,97.67
2023-02-16T01:49:50.742Z,98.90
2023-02-16T01:52:33.476Z,94.60
2023-02-16T01:55:25.146Z,102.45
2023-02-16T01:58:02.148Z,98.52
2023-02-16T02:00:56.952Z,96.30
2023-02-16T02:03:54.228Z,101.50
2023-02-16T02:06:31.335Z,102.12
2023-02-16T02:09:16.929Z,104.92
2023-02-16T02:11:54.206Z,101.82
2023-02-16T02:14:30.298Z,110.08
2023-02-16T02:17:06.955Z,106.10
2023-02-16T02:19:57.251Z,103.25
2023-02-16T02:23:01.057Z,103.58
2023-02-16T02:26:00.690Z,104.07
2023-02-16T02:28:50.834Z,111.52
2023-02-16T02:31:53.516Z,105.72
2023-02-16T02:34:37.492Z,107.50
2023-02-16T02:40:16.870Z,108.07
2023-02-16T02:43:16.248Z,105.95
2023-02-16T02:46:01.755Z,101.38
2023-02-16T02:51:24.855Z,100.00
2023-02-16T02:54:37.377Z,101.20
2023-02-16T02:57:31.500Z,103.40
2023-02-16T03:00:32.357Z,102.00
2023-02-16T03:03:06.035Z,105.12
2023-02-16T03:05:39.249Z,101.02
2023-02-16T03:08:17.534Z,100.53
2023-02-16T03:11:10.274Z,105.52
2023-02-16T03:13:44.960Z,105.45
2023-02-16T03:16:21.827Z,101.18
2023-02-16T03:19:11.102Z,101.60
2023-02-16T03:22:00.840Z,100.78
2023-02-16T03:24:52.120Z,99.28
2023-02-16T03:27:44.769Z,101.53
2023-02-16T03:30:19.401Z,94.37
2023-02-16T03:32:52.150Z,97.67
2023-02-16T03:35:24.190Z,96.40
2023-02-16T03:37:58.050Z,99.25
2023-02-16T03:40:33.363Z,96.87
2023-02-16T03:43:09.075Z,96.08
2023-02-16T03:45:43.153Z,94.40
2023-02-16T03:48:15.295Z,95.07
2023-02-16T03:50:48.695Z,96.70
2023-02-16T03:53:21.029Z,95.00
2023-02-16T03:55:52.110Z,91.70
2023-02-16T03:58:26.634Z,91.63
2023-02-16T04:01:01.041Z,93.10
2023-02-16T04:03:32.898Z,92.47
2023-02-16T04:06:05.649Z,100.60
2023-02-16T04:08:38.074Z,102.65
2023-02-16T04:11:26.888Z,100.20
2023-02-16T04:13:58.381Z,96.47
2023-02-16T04:16:29.785Z,93.60
2023-02-16T04:19:02.828Z,91.05
2023-02-16T04:21:35.040Z,90.00
2023-02-16T04:24:15.458Z,88.03
2023-02-16T04:26:49.771Z,91.55
2023-02-16T04:29:21.986Z,90.80
2023-02-16T04:31:53.867Z,91.55
2023-02-16T04:34:27.253Z,88.25
2023-02-16T04:37:01.415Z,66.50
2023-02-16T04:39:34.297Z,87.05
2023-02-16T04:42:07.385Z,93.05
2023-02-16T04:44:40.756Z,87.90
2023-02-16T04:47:15.635Z,89.85
2023-02-16T04:49:49.236Z,84.70
2023-02-16T04:52:21.743Z,79.47
2023-02-16T04:54:55.882Z,80.15
2023-02-16T04:57:27.378Z,83.13
2023-02-16T05:00:02.203Z,86.20
2023-02-16T05:02:36.810Z,78.52
2023-02-16T05:05:09.298Z,81.78
2023-02-16T05:07:42.761Z,76.92
2023-02-16T05:10:16.258Z,80.72
2023-02-16T05:13:05.579Z,77.70
2023-02-16T05:15:37.621Z,75.67
2023-02-16T05:18:08.813Z,76.75
2023-02-16T05:20:58.139Z,74.22
2023-02-16T05:23:28.845Z,73.52
2023-02-16T05:26:00.581Z,74.42
2023-02-16T05:28:33.580Z,74.05
2023-02-16T05:31:05.582Z,73.45
2023-02-16T05:33:36.800Z,74.27
2023-02-16T05:36:08.237Z,72.35
2023-02-16T05:38:39.499Z,68.78
2023-02-16T05:41:10.917Z,72.82
2023-02-16T05:43:43.460Z,70.85
2023-02-16T05:46:18.073Z,68.85
2023-02-16T05:51:21.307Z,69.75
2023-02-16T05:53:52.281Z,70.65
2023-02-16T05:56:26.513Z,68.90
2023-02-16T05:59:00.014Z,66.75
2023-02-16T06:01:30.738Z,71.28
2023-02-16T06:04:02.883Z,71.62
2023-02-16T06:06:36.606Z,68.80
2023-02-16T06:09:09.246Z,67.17
2023-02-16T06:11:41.257Z,69.07
2023-02-16T06:14:20.444Z,68.52
2023-02-16T06:16:52.435Z,68.42
2023-02-16T06:19:26.029Z,62.62
2023-02-16T06:22:02.480Z,68.25
2023-02-16T06:24:33.464Z,68.28
2023-02-16T06:27:08.244Z,63.78
2023-02-16T06:29:39.365Z,65.75
2023-02-16T06:32:12.790Z,64.80
2023-02-16T06:34:43.827Z,65.75
2023-02-16T06:37:16.094Z,64.22
2023-02-16T06:39:46.777Z,66.07
2023-02-16T06:42:20.531Z,66.12
2023-02-16T06:44:53.288Z,64.80
2023-02-16T06:47:25.620Z,65.87
2023-02-16T06:49:57.009Z,62.65
2023-02-16T06:52:30.131Z,65.67
2023-02-16T06:55:06.909Z,62.50
2023-02-16T06:57:40.142Z,64.53
2023-02-16T07:00:11.493Z,63.28
2023-02-16T07:02:44.034Z,63.25
2023-02-16T07:05:15.979Z,66.95
2023-02-16T07:07:47.860Z,63.63
2023-02-16T07:10:21.760Z,61.15
2023-02-16T07:12:53.436Z,63.20
2023-02-16T07:15:27.116Z,58.65
2023-02-16T07:17:59.222Z,63.70
2023-02-16T07:20:31.641Z,57.17
2023-02-16T07:23:03.902Z,63.75
2023-02-16T07:25:37.269Z,58.73
2023-02-16T07:28:08.828Z,61.90
2023-02-16T07:30:40.946Z,58.75
2023-02-16T07:33:11.688Z,64.82
2023-02-16T07:35:43.098Z,60.88
2023-02-16T07:38:13.988Z,63.92
2023-02-16T07:40:44.645Z,60.00
2023-02-16T07:43:15.300Z,60.98
2023-02-16T07:45:46.265Z,61.10
2023-02-16T07:48:17.209Z,66.12
2023-02-16T07:50:48.084Z,63.45
2023-02-16T07:53:19.151Z,62.33
2023-02-16T07:55:49.794Z,63.73
2023-02-16T07:58:30.103Z,63.65
2023-02-16T08:01:15.936Z,60.55
2023-02-16T08:03:46.996Z,61.55
2023-02-16T08:06:18.844Z,58.90
2023-02-16T08:08:50.789Z,58.23
2023-02-16T08:11:24.607Z,59.67
2023-02-16T08:13:55.862Z,61.68
2023-02-16T08:16:29.300Z,58.13
2023-02-16T08:19:01.252Z,59.13
2023-02-16T08:21:34.280Z,58.92
2023-02-16T08:24:07.450Z,61.08
2023-02-16T08:26:40.962Z,59.67
2023-02-16T08:29:14.166Z,58.20
2023-02-16T08:31:47.605Z,58.85
2023-02-16T08:34:21.493Z,55.28
2023-02-16T08:36:57.442Z,56.35
2023-02-16T08:39:31.599Z,58.68
2023-02-16T08:42:03.935Z,59.85
2023-02-16T08:44:34.644Z,58.23
2023-02-16T08:47:05.567Z,56.20
2023-02-16T08:49:36.305Z,59.65
2023-02-16T08:52:07.581Z,55.85
2023-02-16T08:54:39.097Z,58.40
2023-02-16T08:57:09.743Z,56.60
2023-02-16T08:59:40.540Z,55.55
2023-02-16T09:02:12.517Z,54.18
2023-02-16T09:04:47.795Z,52.33
2023-02-16T09:07:18.050Z,56.33
2023-02-16T09:09:50.043Z,54.42
2023-02-16T09:12:22.370Z,49.85
2023-02-16T09:14:57.887Z,48.55
2023-02-16T09:17:31.279Z,50.38
2023-02-16T09:20:02.279Z,50.40
2023-02-16T09:22:33.400Z,52.85
2023-02-16T09:25:04.457Z,48.13
2023-02-16T09:27:35.596Z,47.35
2023-02-16T09:30:07.045Z,52.40
2023-02-16T09:32:37.910Z,46.70
2023-02-16T09:35:09.702Z,48.85
2023-02-16T09:37:40.729Z,46.37
2023-02-16T09:40:15.206Z,50.28
2023-02-16T09:42:54.986Z,45.88
2023-02-16T09:45:27.137Z,46.02
2023-02-16T09:47:59.553Z,42.50
2023-02-16T09:50:52.523Z,45.52
2023-02-16T09:53:18.583Z,42.75
2023-02-16T09:56:03.067Z,46.85
2023-02-16T09:58:53.196Z,42.85
2023-02-16T10:01:49.506Z,44.60
2023-02-16T10:07:22.406Z,41.23
2023-02-16T10:09:55.505Z,43.08
2023-02-16T10:12:28.953Z,43.85
2023-02-16T10:15:02.709Z,46.05
2023-02-16T10:17:37.932Z,43.52
2023-02-16T10:20:19.805Z,43.35
2023-02-16T10:23:05.659Z,41.63
2023-02-16T10:25:53.157Z,41.55
2023-02-16T10:28:53.172Z,40.23
2023-02-16T10:31:42.892Z,40.15
2023-02-16T10:37:19.819Z,39.30
2023-02-16T10:39:53.681Z,38.63
2023-02-16T10:42:41.214Z,38.98
2023-02-16T10:45:34.348Z,37.98
2023-02-16T10:48:05.760Z,39.00
2023-02-16T10:50:47.055Z,41.05
2023-02-16T10:53:29.292Z,38.13
2023-02-16T10:56:00.945Z,39.08
2023-02-16T10:58:34.468Z,39.75
2023-02-16T11:01:10.849Z,37.65
2023-02-16T11:03:47.190Z,38.67
2023-02-16T11:06:20.686Z,35.43
2023-02-16T11:08:58.114Z,38.15
2023-02-16T11:11:31.654Z,36.93
2023-02-16T11:14:09.203Z,40.33
2023-02-16T11:16:41.796Z,44.33
2023-02-16T11:19:21.208Z,39.92
2023-02-16T11:21:58.635Z,38.35
2023-02-16T11:24:32.358Z,39.48
2023-02-16T11:27:08.330Z,36.48
2023-02-16T11:29:40.346Z,42.62
2023-02-16T11:32:14.100Z,44.10
2023-02-16T11:34:50.459Z,42.75
2023-02-16T11:37:31.087Z,43.92
2023-02-16T11:40:10.920Z,42.95
2023-02-16T11:42:50.400Z,43.17
2023-02-16T11:45:23.858Z,46.10
2023-02-16T11:47:57.416Z,40.28
2023-02-16T11:50:31.120Z,42.83
2023-02-16T11:53:14.990Z,41.20
2023-02-16T11:55:50.546Z,49.25
2023-02-16T11:58:26.789Z,46.02
2023-02-16T12:01:08.658Z,47.48
2023-02-16T12:04:14.230Z,51.37
2023-02-16T12:07:04.746Z,50.23
2023-02-16T12:09:56.443Z,48.52
2023-02-16T12:12:46.680Z,48.28
2023-02-16T12:15:25.930Z,51.88
2023-02-16T12:18:05.359Z,52.75
2023-02-16T12:20:44.796Z,51.95
2023-02-16T12:23:36.450Z,49.45
2023-02-16T12:26:32.669Z,44.05
2023-02-16T12:31:52.299Z,47.43
2023-02-16T12:34:43.630Z,47.78
2023-02-16T12:37:26.063Z,47.62
2023-02-16T12:40:22.161Z,45.35
2023-02-16T12:43:16.819Z,47.85
2023-02-16T12:45:48.417Z,44.90
2023-02-16T12:48:27.764Z,47.90
2023-02-16T12:51:00.363Z,46.35
2023-02-16T12:53:36.740Z,45.95
2023-02-16T12:56:12.365Z,42.78
2023-02-16T12:58:45.801Z,39.35
2023-02-16T13:01:25.500Z,35.92
2023-02-16T13:04:20.392Z,41.05
2023-02-16T13:07:18.349Z,45.15
2023-02-16T13:10:02.213Z,47.25
2023-02-16T13:12:41.538Z,43.75
2023-02-16T13:15:17.711Z,43.33
2023-02-16T13:17:56.653Z,41.75
2023-02-16T13:20:28.341Z,43.95
2023-02-16T13:23:15.544Z,49.13
2023-02-16T13:25:53.672Z,38.98
2023-02-16T13:28:51.882Z,43.83
2023-02-16T13:31:48.244Z,43.85
2023-02-16T13:34:38.517Z,42.85
2023-02-16T13:37:25.385Z,46.10
2023-02-16T13:40:01.765Z,41.13
2023-02-16T13:43:05.410Z,41.85
2023-02-16T13:45:42.469Z,45.90
2023-02-16T13:50:48.649Z,44.40
2023-02-16T13:53:22.279Z,44.77
2023-02-16T13:56:12.257Z,49.00
2023-02-16T13:58:42.823Z,45.52
2023-02-16T14:01:42.294Z,50.95
2023-02-16T14:04:17.007Z,50.20
2023-02-16T14:07:08.183Z,47.13
2023-02-16T14:09:42.319Z,44.63
2023-02-16T14:12:21.735Z,43.68
2023-02-16T14:14:58.356Z,44.53
2023-02-16T14:17:34.970Z,44.08
2023-02-16T14:20:17.361Z,44.48
2023-02-16T14:22:55.984Z,46.88
2023-02-16T14:25:30.906Z,44.63
2023-02-16T14:28:07.857Z,42.78
2023-02-16T14:30:50.151Z,43.13
2023-02-16T14:33:23.695Z,43.28
2023-02-16T14:36:07.211Z,44.67
2023-02-16T14:38:47.788Z,44.05
2023-02-16T14:41:30.757Z,45.12
2023-02-16T14:44:09.974Z,44.03
2023-02-16T14:47:00.952Z,46.20
2023-02-16T14:49:52.280Z,45.43
2023-02-16T14:52:53.400Z,45.58
2023-02-16T14:55:29.969Z,48.35
2023-02-16T14:58:38.254Z,62.58
2023-02-16T15:01:14.514Z,64.17
2023-02-16T15:03:56.553Z,60.55
2023-02-16T15:06:30.261Z,71.15
2023-02-16T15:09:04.158Z,72.92
2023-02-16T15:11:42.099Z,70.50
2023-02-16T15:14:14.436Z,71.57
2023-02-16T15:16:45.959Z,70.95
2023-02-16T15:19:21.674Z,67.05
2023-02-16T15:22:11.272Z,60.60
2023-02-16T15:24:43.194Z,58.02
2023-02-16T15:27:26.092Z,55.95
2023-02-16T15:30:09.716Z,53.85
2023-02-16T15:32:41.354Z,57.50
2023-02-16T15:35:14.498Z,63.52
2023-02-16T15:37:45.050Z,59.93
2023-02-16T15:40:25.435Z,54.33
2023-02-16T15:42:52.023Z,46.80
2023-02-16T15:45:30.786Z,48.05
2023-02-16T15:48:37.055Z,50.10
2023-02-16T15:51:11.342Z,48.40
2023-02-16T15:53:59.916Z,50.90
2023-02-16T15:56:51.509Z,52.45
2023-02-16T15:59:47.906Z,51.35
2023-02-16T16:02:24.506Z,47.55
2023-02-16T16:05:01.326Z,51.92
2023-02-16T16:07:35.890Z,50.15
2023-02-16T16:10:12.306Z,52.05
2023-02-16T16:12:46.730Z,47.83
2023-02-16T16:15:24.100Z,49.75
2023-02-16T16:17:57.660Z,52.90
2023-02-16T16:20:34.972Z,49.18
2023-02-16T16:23:17.727Z,50.35
2023-02-16T16:25:51.934Z,48.75
2023-02-16T16:28:32.318Z,49.03
2023-02-16T16:31:11.740Z,48.95
2023-02-16T16:34:03.908Z,45.92
2023-02-16T16:36:47.391Z,53.85
2023-02-16T16:39:22.330Z,51.48
2023-02-16T16:42:18.490Z,53.38
2023-02-16T16:45:08.020Z,52.25
2023-02-16T16:47:41.568Z,58.02
2023-02-16T16:50:15.787Z,55.85
2023-02-16T16:52:52.299Z,57.25
2023-02-16T16:55:27.084Z,62.80
2023-02-16T16:58:01.188Z,60.33
2023-02-16T17:03:07.964Z,62.50
2023-02-16T17:05:40.872Z,60.38
2023-02-16T17:08:13.789Z,65.55
2023-02-16T17:10:44.895Z,66.17
2023-02-16T17:13:19.362Z,65.75
2023-02-16T17:15:55.635Z,72.10
2023-02-16T17:18:26.214Z,74.65
2023-02-16T17:20:57.611Z,62.55
2023-02-16T17:23:28.182Z,61.33
2023-02-16T17:26:02.016Z,58.73
2023-02-16T17:28:36.994Z,59.30
2023-02-16T17:31:09.723Z,61.73
2023-02-16T17:33:41.950Z,59.05
2023-02-16T17:36:15.678Z,55.63
2023-02-16T17:38:47.249Z,59.80
2023-02-16T17:41:27.835Z,57.35
2023-02-16T17:43:59.281Z,60.03
2023-02-16T17:46:33.044Z,65.15
2023-02-16T17:51:36.641Z,64.20
2023-02-16T17:54:11.896Z,64.53
2023-02-16T17:56:44.938Z,63.90
2023-02-16T17:59:16.495Z,70.92
2023-02-16T18:01:48.550Z,65.97
2023-02-16T18:04:19.951Z,69.27
2023-02-16T18:06:51.779Z,67.22
2023-02-16T18:09:23.998Z,73.57
2023-02-16T18:11:54.566Z,69.95
2023-02-16T18:14:25.251Z,66.02
2023-02-16T18:16:58.538Z,74.50
2023-02-16T18:19:32.084Z,71.02
2023-02-16T18:22:03.816Z,73.78
2023-02-16T18:24:36.064Z,74.72
2023-02-16T18:27:07.221Z,75.90
2023-02-16T18:29:38.083Z,80.17
2023-02-16T18:32:09.910Z,77.40
2023-02-16T18:34:40.542Z,76.53
2023-02-16T18:37:11.058Z,76.75
2023-02-16T18:39:43.014Z,73.35
2023-02-16T18:42:13.788Z,79.15
2023-02-16T18:44:48.495Z,75.52
2023-02-16T18:47:19.755Z,77.78
2023-02-16T18:49:52.819Z,76.10
2023-02-16T18:52:23.937Z,76.87
2023-02-16T18:54:55.308Z,76.42
2023-02-16T18:57:28.944Z,74.30
2023-02-16T19:00:00.847Z,74.30
2023-02-16T19:02:31.951Z,75.20
2023-02-16T19:05:03.672Z,72.62
2023-02-16T19:07:35.451Z,66.85
2023-02-16T19:10:10.092Z,67.80
2023-02-16T19:12:42.283Z,66.40
2023-02-16T19:15:14.686Z,70.08
2023-02-16T19:17:46.139Z,68.28
2023-02-16T19:20:19.219Z,75.87
2023-02-16T19:22:51.774Z,75.15
2023-02-16T19:25:24.055Z,73.05
2023-02-16T19:27:56.110Z,70.05
2023-02-16T19:30:30.099Z,69.35
2023-02-16T19:33:04.361Z,70.00
2023-02-16T19:35:39.063Z,69.32
2023-02-16T19:38:11.092Z,65.70
2023-02-16T19:40:46.271Z,67.40
2023-02-16T19:43:18.360Z,61.20
2023-02-16T19:45:52.383Z,61.70
2023-02-16T19:48:25.021Z,64.75
2023-02-16T19:51:00.963Z,67.03
2023-02-16T19:53:33.031Z,64.75
2023-02-16T19:56:07.972Z,60.78
2023-02-16T19:58:39.082Z,58.40
2023-02-16T20:01:12.493Z,57.70
2023-02-16T20:03:44.867Z,54.20
2023-02-16T20:06:18.397Z,54.42
2023-02-16T20:08:51.020Z,53.15
2023-02-16T20:11:24.188Z,60.55
2023-02-16T20:13:57.213Z,58.25
2023-02-16T20:16:29.715Z,55.17
2023-02-16T20:19:01.444Z,58.63
2023-02-16T20:21:33.175Z,55.80
2023-02-16T20:24:07.156Z,53.42
2023-02-16T20:26:41.922Z,55.12
2023-02-16T20:29:17.358Z,54.30
2023-02-16T20:31:54.337Z,52.55
2023-02-16T20:34:28.358Z,51.33
2023-02-16T20:36:59.800Z,53.33
2023-02-16T20:39:31.538Z,56.35
2023-02-16T20:42:05.124Z,59.33
2023-02-16T20:44:36.438Z,52.75
2023-02-16T20:47:10.702Z,51.60
2023-02-16T20:49:42.589Z,53.70
2023-02-16T20:52:13.921Z,54.03
2023-02-16T20:54:45.159Z,50.28
2023-02-16T20:57:26.502Z,52.48
2023-02-16T20:59:49.353Z,53.15
2023-02-16T21:02:22.013Z,51.08
2023-02-16T21:04:55.907Z,55.20
2023-02-16T21:07:26.610Z,55.20
2023-02-16T21:09:57.597Z,54.73
2023-02-16T21:12:28.466Z,57.78
2023-02-16T21:14:59.115Z,54.67
2023-02-16T21:17:29.819Z,58.00
2023-02-16T21:20:00.552Z,59.18
2023-02-16T21:22:31.228Z,57.20
2023-02-16T21:25:02.144Z,58.95
2023-02-16T21:27:32.964Z,55.45
2023-02-16T21:30:03.786Z,54.25
2023-02-16T21:32:34.742Z,50.03
2023-02-16T21:35:05.575Z,53.63
2023-02-16T21:37:38.980Z,52.17
2023-02-16T21:40:29.199Z,45.88
2023-02-16T21:43:00.434Z,46.40
2023-02-16T21:45:32.595Z,45.98
2023-02-16T21:48:21.537Z,41.23
2023-02-16T21:50:52.347Z,42.58
2023-02-16T21:53:23.593Z,39.73
2023-02-16T21:56:12.452Z,40.75
2023-02-16T21:58:43.787Z,41.10
2023-02-16T22:01:15.258Z,39.30
2023-02-16T22:03:46.053Z,37.40
2023-02-16T22:06:17.009Z,41.80
2023-02-16T22:08:47.908Z,37.10
2023-02-16T22:11:18.826Z,36.23
2023-02-16T22:13:53.016Z,41.33
2023-02-16T22:16:24.190Z,38.98
2023-02-16T22:19:05.013Z,38.73
2023-02-16T22:21:38.104Z,35.90
2023-02-16T22:24:09.692Z,38.83
2023-02-16T22:26:40.541Z,36.40
2023-02-16T22:29:12.045Z,38.98
2023-02-16T22:31:49.191Z,37.48
2023-02-16T22:34:24.602Z,37.28
2023-02-16T22:39:31.152Z,34.98
2023-02-16T22:42:00.308Z,40.20
2023-02-16T22:44:31.023Z,39.90
2023-02-16T22:47:02.642Z,39.48
2023-02-16T22:49:36.470Z,40.45
2023-02-16T22:52:11.629Z,41.55
2023-02-16T22:54:42.172Z,43.08
2023-02-16T22:57:12.801Z,43.33
2023-02-16T22:59:44.519Z,41.00
2023-02-16T23:02:15.255Z,39.10
2023-02-16T23:04:47.476Z,38.60
2023-02-16T23:07:19.316Z,37.00
2023-02-16T23:09:49.931Z,36.85
2023-02-16T23:12:20.673Z,37.80
2023-02-16T23:14:56.825Z,37.90
2023-02-16T23:17:28.235Z,36.30
2023-02-16T23:19:59.011Z,36.13
2023-02-16T23:22:31.963Z,37.48
2023-02-16T23:25:26.241Z,36.90
2023-02-16T23:28:12.712Z,38.28
2023-02-16T23:30:52.935Z,34.53
2023-02-16T23:33:24.039Z,37.00
2023-02-16T23:35:55.118Z,36.88
2023-02-16T23:38:26.011Z,36.03
2023-02-16T23:41:05.037Z,37.67
2023-02-16T23:43:36.006Z,39.05
2023-02-16T23:46:07.535Z,39.88
2023-02-16T23:48:41.038Z,40.88
2023-02-16T23:51:13.344Z,39.13
2023-02-16T23:53:43.995Z,40.28
2023-02-16T23:56:23.851Z,39.20
2023-02-16T23:59:00.230Z,43.70
